Osaka Car — 9V2190 — position and weather

sailwx.info

Track history (hours):
 
Tides and Currents Weather Stations Pressure Air Temp Water Temp Dewpoint Dewpoint Depression Visibility Wind Speed Wind Dir Waves Ship Positions

Osaka Car

Last reported at 2018-Jul-17 22:33 UTC. Time now 2018-Jul-19 23:04 UTC.
Position N 31°04' E 122°32'.

Length 183 m; draft 8.9 m.

Type: Other ship. MMSI: 566997000.

Date/timePositionNaut miles runAvg speedWind from/ knotsBaromVisibWave heightAir tempDewpointWater temp
2018-Jul-17 22:33N 31°04' E 122°32'215.6
2018-Jul-17 22:24N 31°05' E 122°29'511.6
2018-Jul-17 22:00N 31°05' E 122°24'714.9
2018-Jul-17 21:30N 31°08' E 122°16'814.8
2018-Jul-17 21:00N 31°12' E 122°09'713.3
2018-Jul-17 20:30N 31°14' E 122°02'612.1
2018-Jul-17 20:00N 31°16' E 121°55'910.9
2018-Jul-17 19:10N 31°19' E 121°45'2 0.1
2018-Jul-17 06:36N 31°18' E 121°46'1 9.7
2018-Jul-17 06:30N 31°18' E 121°48'510.2
2018-Jul-17 06:00N 31°16' E 121°53'5 9.9
2018-Jul-17 05:28N 31°15' E 121°59'710.1
2018-Jul-17 04:46N 31°13' E 122°07'4 9.9
2018-Jul-17 04:23N 31°11' E 122°11'510.1
2018-Jul-17 03:55N 31°08' E 122°15'3 8.2
2018-Jul-17 03:30N 31°06' E 122°19'5 8.9
2018-Jul-17 02:55N 31°06' E 122°25'34910.0
2018-Jul-15 15:57N 36°54' E 122°48'4512.2
2018-Jul-15 12:18N 37°35' E 122°25'413.4
2018-Jul-15 11:59N 37°37' E 122°21'713.6
2018-Jul-15 11:30N 37°39' E 122°12'713.6
2018-Jul-15 11:00N 37°40' E 122°04'714.3
2018-Jul-15 10:30N 37°40' E 121°55'714.2
2018-Jul-15 10:00N 37°41' E 121°46'714.2
2018-Jul-15 09:30N 37°41' E 121°37'713.5
2018-Jul-15 09:00N 37°40' E 121°29'612.0
2018-Jul-15 08:31N 37°35' E 121°25'2 4.0
2018-Jul-15 08:00N 37°34' E 121°23'0 0.0
2018-Jul-15 07:30N 37°34' E 121°23'0 0.0
2018-Jul-15 07:00N 37°34' E 121°23'0 0.0
2018-Jul-15 06:30N 37°34' E 121°23'0 0.0
2018-Jul-15 06:00N 37°34' E 121°23'0 0.0
2018-Jul-15 05:30N 37°34' E 121°23'0 0.0
2018-Jul-15 05:00N 37°34' E 121°23'0 0.0
2018-Jul-15 04:30N 37°34' E 121°23'0 0.0
2018-Jul-15 04:00N 37°34' E 121°23'0 0.0
2018-Jul-15 03:27N 37°34' E 121°23'0 0.0
2018-Jul-15 03:00N 37°34' E 121°23'0 0.0
2018-Jul-15 02:30N 37°34' E 121°23'0 0.0
2018-Jul-15 02:00N 37°34' E 121°23'0 0.0
2018-Jul-15 01:30N 37°34' E 121°23'0 0.0
2018-Jul-15 01:00N 37°34' E 121°23'0 0.0
2018-Jul-15 00:30N 37°34' E 121°23'0 0.0
2018-Jul-15 00:00N 37°34' E 121°23'0 0.0
2018-Jul-14 23:30N 37°34' E 121°23'0 0.0
2018-Jul-14 23:00N 37°34' E 121°23'0 0.3
2018-Jul-14 22:30N 37°34' E 121°23'4 8.0
2018-Jul-14 22:00N 37°36' E 121°27'3 6.6
2018-Jul-14 21:31N 37°39' E 121°29'0 0.9
2018-Jul-14 21:01N 37°38' E 121°29'2 4.1
2018-Jul-14 20:31N 37°40' E 121°28'3 5.1
2018-Jul-14 20:00N 37°42' E 121°31'3 6.4
2018-Jul-14 19:31N 37°43' E 121°35'3 6.3
2018-Jul-14 19:01N 37°43' E 121°39'3 6.2
2018-Jul-14 18:31N 37°43' E 121°43'3 6.5
2018-Jul-14 18:00N 37°44' E 121°47'  
2018-Jul-09 12:57N 37°44' E 121°47'613.7
2018-Jul-09 12:30N 37°43' E 121°39'713.9
2018-Jul-09 12:00N 37°42' E 121°31'611.4
2018-Jul-09 11:30N 37°37' E 121°28'5 9.1
2018-Jul-09 11:00N 37°34' E 121°23'0 0.4
2018-Jul-09 10:25N 37°34' E 121°23'0 0.0
2018-Jul-09 09:58N 37°34' E 121°23'0 0.0
2018-Jul-09 09:28N 37°34' E 121°23'0 0.0
2018-Jul-09 08:58N 37°34' E 121°23'0 0.0
2018-Jul-09 08:28N 37°34' E 121°23'0 0.0
2018-Jul-09 07:58N 37°34' E 121°23'0 0.0
2018-Jul-09 07:28N 37°34' E 121°23'0 0.0
2018-Jul-09 06:58N 37°34' E 121°23'0 0.0
2018-Jul-09 06:28N 37°34' E 121°23'0 0.0
2018-Jul-09 05:58N 37°34' E 121°23'0 0.0
2018-Jul-09 05:28N 37°34' E 121°23'0 0.0
2018-Jul-09 04:58N 37°34' E 121°23'0 0.0
2018-Jul-09 04:28N 37°34' E 121°23'0 0.0
2018-Jul-09 03:55N 37°34' E 121°23'0 0.0
2018-Jul-09 03:28N 37°34' E 121°23'0 0.0
2018-Jul-09 02:58N 37°34' E 121°23'0 0.0
2018-Jul-09 02:25N 37°34' E 121°23'0 0.0
2018-Jul-09 01:58N 37°34' E 121°23'0 0.0
2018-Jul-09 01:28N 37°34' E 121°23'0 0.0
2018-Jul-09 00:58N 37°34' E 121°23'0 0.0
2018-Jul-09 00:28N 37°34' E 121°23'0 0.0
2018-Jul-08 23:58N 37°34' E 121°23'0 0.0
2018-Jul-08 23:31N 37°34' E 121°23'1 1.5
2018-Jul-08 23:01N 37°34' E 121°24'4 7.8
2018-Jul-08 22:31N 37°37' E 121°27'3 5.7
2018-Jul-08 22:01N 37°39' E 121°30'2 3.7
2018-Jul-08 21:29N 37°40' E 121°31'0 0.1
2018-Jul-08 20:59N 37°40' E 121°31'0 0.0
2018-Jul-08 20:29N 37°40' E 121°31'0 0.0
2018-Jul-08 19:59N 37°40' E 121°31'0 0.0
2018-Jul-08 19:29N 37°40' E 121°31'0 0.1
2018-Jul-08 18:59N 37°40' E 121°31'0 0.0
2018-Jul-08 18:29N 37°40' E 121°31'0 0.0
2018-Jul-08 17:59N 37°40' E 121°31'0 0.1
2018-Jul-08 17:23N 37°40' E 121°31'0 0.1
2018-Jul-08 16:59N 37°40' E 121°31'0 0.0
2018-Jul-08 16:29N 37°40' E 121°31'0 0.0
2018-Jul-08 15:59N 37°40' E 121°31'0 0.0
2018-Jul-08 15:26N 37°40' E 121°31'0 0.0
2018-Jul-08 14:59N 37°40' E 121°31'0 0.0
2018-Jul-08 14:29N 37°40' E 121°31'0 0.1
2018-Jul-08 13:59N 37°40' E 121°31'0 0.0
2018-Jul-08 13:29N 37°40' E 121°31'0 0.0
2018-Jul-08 12:59N 37°40' E 121°31'0 0.0
2018-Jul-08 12:29N 37°40' E 121°31'0 0.0
2018-Jul-08 11:59N 37°40' E 121°31'0 0.0
2018-Jul-08 11:31N 37°40' E 121°31'0 0.0
2018-Jul-08 11:00N 37°40' E 121°31'0 0.0
2018-Jul-08 10:31N 37°40' E 121°31'0 0.0
2018-Jul-08 10:01N 37°40' E 121°31'0 0.0
2018-Jul-08 09:30N 37°40' E 121°31'0 0.0
2018-Jul-08 09:00N 37°40' E 121°31'1 1.9
2018-Jul-08 08:31N 37°41' E 121°32'3 5.6
2018-Jul-08 08:01N 37°40' E 121°36'611.2
2018-Jul-08 07:30N 37°40' E 121°43'814.7
2018-Jul-08 06:58N 37°39' E 121°53'  
Track history (hours):
 
Tides and Currents Weather Stations Pressure Air Temp Water Temp Dewpoint Dewpoint Depression Visibility Wind Speed Wind Dir Waves Ship Positions

Osaka Car

Last reported at 2018-Jul-17 22:33 UTC. Time now 2018-Jul-19 23:04 UTC.
Position N 31°04' E 122°32'.

Length 183 m; draft 8.9 m.

Type: Other ship. MMSI: 566997000.

Date/timePositionNaut miles runAvg speedWind from/ knotsBaromVisibWave heightAir tempDewpointWater temp
2018-Jul-17 22:33N 31°04' E 122°32'215.6
2018-Jul-17 22:24N 31°05' E 122°29'511.6
2018-Jul-17 22:00N 31°05' E 122°24'714.9
2018-Jul-17 21:30N 31°08' E 122°16'814.8
2018-Jul-17 21:00N 31°12' E 122°09'713.3
2018-Jul-17 20:30N 31°14' E 122°02'612.1
2018-Jul-17 20:00N 31°16' E 121°55'910.9
2018-Jul-17 19:10N 31°19' E 121°45'2 0.1
2018-Jul-17 06:36N 31°18' E 121°46'1 9.7
2018-Jul-17 06:30N 31°18' E 121°48'510.2
2018-Jul-17 06:00N 31°16' E 121°53'5 9.9
2018-Jul-17 05:28N 31°15' E 121°59'710.1
2018-Jul-17 04:46N 31°13' E 122°07'4 9.9
2018-Jul-17 04:23N 31°11' E 122°11'510.1
2018-Jul-17 03:55N 31°08' E 122°15'3 8.2
2018-Jul-17 03:30N 31°06' E 122°19'5 8.9
2018-Jul-17 02:55N 31°06' E 122°25'34910.0
2018-Jul-15 15:57N 36°54' E 122°48'4512.2
2018-Jul-15 12:18N 37°35' E 122°25'413.4
2018-Jul-15 11:59N 37°37' E 122°21'713.6
2018-Jul-15 11:30N 37°39' E 122°12'713.6
2018-Jul-15 11:00N 37°40' E 122°04'714.3
2018-Jul-15 10:30N 37°40' E 121°55'714.2
2018-Jul-15 10:00N 37°41' E 121°46'714.2
2018-Jul-15 09:30N 37°41' E 121°37'713.5
2018-Jul-15 09:00N 37°40' E 121°29'612.0
2018-Jul-15 08:31N 37°35' E 121°25'2 4.0
2018-Jul-15 08:00N 37°34' E 121°23'0 0.0
2018-Jul-15 07:30N 37°34' E 121°23'0 0.0
2018-Jul-15 07:00N 37°34' E 121°23'0 0.0
2018-Jul-15 06:30N 37°34' E 121°23'0 0.0
2018-Jul-15 06:00N 37°34' E 121°23'0 0.0
2018-Jul-15 05:30N 37°34' E 121°23'0 0.0
2018-Jul-15 05:00N 37°34' E 121°23'0 0.0
2018-Jul-15 04:30N 37°34' E 121°23'0 0.0
2018-Jul-15 04:00N 37°34' E 121°23'0 0.0
2018-Jul-15 03:27N 37°34' E 121°23'0 0.0
2018-Jul-15 03:00N 37°34' E 121°23'0 0.0
2018-Jul-15 02:30N 37°34' E 121°23'0 0.0
2018-Jul-15 02:00N 37°34' E 121°23'0 0.0
2018-Jul-15 01:30N 37°34' E 121°23'0 0.0
2018-Jul-15 01:00N 37°34' E 121°23'0 0.0
2018-Jul-15 00:30N 37°34' E 121°23'0 0.0
2018-Jul-15 00:00N 37°34' E 121°23'0 0.0
2018-Jul-14 23:30N 37°34' E 121°23'0 0.0
2018-Jul-14 23:00N 37°34' E 121°23'0 0.3
2018-Jul-14 22:30N 37°34' E 121°23'4 8.0
2018-Jul-14 22:00N 37°36' E 121°27'3 6.6
2018-Jul-14 21:31N 37°39' E 121°29'0 0.9
2018-Jul-14 21:01N 37°38' E 121°29'2 4.1
2018-Jul-14 20:31N 37°40' E 121°28'3 5.1
2018-Jul-14 20:00N 37°42' E 121°31'3 6.4
2018-Jul-14 19:31N 37°43' E 121°35'3 6.3
2018-Jul-14 19:01N 37°43' E 121°39'3 6.2
2018-Jul-14 18:31N 37°43' E 121°43'3 6.5
2018-Jul-14 18:00N 37°44' E 121°47'  
2018-Jul-09 12:57N 37°44' E 121°47'613.7
2018-Jul-09 12:30N 37°43' E 121°39'713.9
2018-Jul-09 12:00N 37°42' E 121°31'611.4
2018-Jul-09 11:30N 37°37' E 121°28'5 9.1
2018-Jul-09 11:00N 37°34' E 121°23'0 0.4
2018-Jul-09 10:25N 37°34' E 121°23'0 0.0
2018-Jul-09 09:58N 37°34' E 121°23'0 0.0
2018-Jul-09 09:28N 37°34' E 121°23'0 0.0
2018-Jul-09 08:58N 37°34' E 121°23'0 0.0
2018-Jul-09 08:28N 37°34' E 121°23'0 0.0
2018-Jul-09 07:58N 37°34' E 121°23'0 0.0
2018-Jul-09 07:28N 37°34' E 121°23'0 0.0
2018-Jul-09 06:58N 37°34' E 121°23'0 0.0
2018-Jul-09 06:28N 37°34' E 121°23'0 0.0
2018-Jul-09 05:58N 37°34' E 121°23'0 0.0
2018-Jul-09 05:28N 37°34' E 121°23'0 0.0
2018-Jul-09 04:58N 37°34' E 121°23'0 0.0
2018-Jul-09 04:28N 37°34' E 121°23'0 0.0
2018-Jul-09 03:55N 37°34' E 121°23'0 0.0
2018-Jul-09 03:28N 37°34' E 121°23'0 0.0
2018-Jul-09 02:58N 37°34' E 121°23'0 0.0
2018-Jul-09 02:25N 37°34' E 121°23'0 0.0
2018-Jul-09 01:58N 37°34' E 121°23'0 0.0
2018-Jul-09 01:28N 37°34' E 121°23'0 0.0
2018-Jul-09 00:58N 37°34' E 121°23'0 0.0
2018-Jul-09 00:28N 37°34' E 121°23'0 0.0
2018-Jul-08 23:58N 37°34' E 121°23'0 0.0
2018-Jul-08 23:31N 37°34' E 121°23'1 1.5
2018-Jul-08 23:01N 37°34' E 121°24'4 7.8
2018-Jul-08 22:31N 37°37' E 121°27'3 5.7
2018-Jul-08 22:01N 37°39' E 121°30'2 3.7
2018-Jul-08 21:29N 37°40' E 121°31'0 0.1
2018-Jul-08 20:59N 37°40' E 121°31'0 0.0
2018-Jul-08 20:29N 37°40' E 121°31'0 0.0
2018-Jul-08 19:59N 37°40' E 121°31'0 0.0
2018-Jul-08 19:29N 37°40' E 121°31'0 0.1
2018-Jul-08 18:59N 37°40' E 121°31'0 0.0
2018-Jul-08 18:29N 37°40' E 121°31'0 0.0
2018-Jul-08 17:59N 37°40' E 121°31'0 0.1
2018-Jul-08 17:23N 37°40' E 121°31'0 0.1
2018-Jul-08 16:59N 37°40' E 121°31'0 0.0
2018-Jul-08 16:29N 37°40' E 121°31'0 0.0
2018-Jul-08 15:59N 37°40' E 121°31'0 0.0
2018-Jul-08 15:26N 37°40' E 121°31'0 0.0
2018-Jul-08 14:59N 37°40' E 121°31'0 0.0
2018-Jul-08 14:29N 37°40' E 121°31'0 0.1
2018-Jul-08 13:59N 37°40' E 121°31'0 0.0
2018-Jul-08 13:29N 37°40' E 121°31'0 0.0
2018-Jul-08 12:59N 37°40' E 121°31'0 0.0
2018-Jul-08 12:29N 37°40' E 121°31'0 0.0
2018-Jul-08 11:59N 37°40' E 121°31'0 0.0
2018-Jul-08 11:31N 37°40' E 121°31'0 0.0
2018-Jul-08 11:00N 37°40' E 121°31'0 0.0
2018-Jul-08 10:31N 37°40' E 121°31'0 0.0
2018-Jul-08 10:01N 37°40' E 121°31'0 0.0
2018-Jul-08 09:30N 37°40' E 121°31'0 0.0
2018-Jul-08 09:00N 37°40' E 121°31'1 1.9
2018-Jul-08 08:31N 37°41' E 121°32'3 5.6
2018-Jul-08 08:01N 37°40' E 121°36'611.2
2018-Jul-08 07:30N 37°40' E 121°43'814.7
2018-Jul-08 06:58N 37°39' E 121°53'  

Dump ship's entire track history